Time;durP1;ratioP1;P1;durP2;ratioP2;P2;SDS_P1;SDS_P2;PMS_P1;PMS_P2;Temp;Humidity;BMP_temperature;BMP_pressure;BME280_temperature;BME280_humidity;BME280_pressure;Samples;Min_cycle;Max_cycle;Signal;HPM_P1;HPM_P2
2023/04/14 00:01:30;;;;;;;;;;;;;;;-142.75;100.00;77243.56;5012222;28;20033;-69
2023/04/14 00:03:56;;;;;;;8.30;1.50;;;;;;;-142.75;100.00;77243.56;5011334;28;19949;-69
2023/04/14 00:06:21;;;;;;;8.00;1.63;;;;;;;-142.75;100.00;77259.31;4993745;28;20076;-68
2023/04/14 00:08:47;;;;;;;6.23;1.50;;;;;;;-142.75;100.00;77261.28;5011947;28;20025;-69
2023/04/14 00:11:12;;;;;;;5.57;1.23;;;;;;;-142.75;100.00;77286.88;5014697;28;20037;-70
2023/04/14 00:13:37;;;;;;;3.80;1.37;;;;;;;-142.75;100.00;77296.72;5014888;28;20030;-69
2023/04/14 00:16:05;;;;;;;6.43;1.33;;;;;;;-142.75;100.00;77296.72;5014637;28;20038;-69
2023/04/14 00:18:30;;;;;;;5.00;1.50;;;;;;;-142.75;100.00;77302.63;5014553;28;20527;-68
2023/04/14 00:20:55;;;;;;;8.70;1.50;;;;;;;-142.75;100.00;77302.63;5041272;22;20054;-66
2023/04/14 00:23:20;;;;;;;;;;;;;;;-142.75;100.00;77296.72;5013676;28;20108;-66
2023/04/14 00:25:48;;;;;;;7.17;1.50;;;;;;;-142.75;100.00;77302.63;4996580;28;20004;-65
2023/04/14 00:28:13;;;;;;;10.70;1.60;;;;;;;-142.75;100.00;77310.50;5014237;28;20022;-65
2023/04/14 00:30:38;;;;;;;4.43;1.57;;;;;;;-142.75;100.00;77308.53;5014261;28;20385;-66
2023/04/14 00:33:04;;;;;;;9.90;1.83;;;;;;;-142.75;100.00;77318.38;5014330;28;20036;-64
2023/04/14 00:35:30;;;;;;;5.23;1.20;;;;;;;-142.75;100.00;77320.34;5014349;28;20030;-66
2023/04/14 00:37:57;;;;;;;10.20;2.50;;;;;;;-142.75;100.00;77318.38;5014135;28;20033;-65
2023/04/14 00:40:22;;;;;;;5.50;1.50;;;;;;;-142.75;100.00;77332.16;5014175;28;20051;-65
2023/04/14 00:42:48;;;;;;;5.30;1.60;;;;;;;-142.75;100.00;77330.19;5014062;28;20068;-66
2023/04/14 00:45:14;;;;;;;11.70;1.50;;;;;;;-142.75;100.00;77342.00;5014192;28;20033;-66
2023/04/14 00:47:41;;;;;;;13.23;1.80;;;;;;;-142.75;100.00;77342.00;4996381;28;20042;-65
2023/04/14 00:50:08;;;;;;;5.30;1.47;;;;;;;-142.75;100.00;77349.88;5014008;28;20022;-65
2023/04/14 00:52:36;;;;;;;9.37;2.40;;;;;;;-142.75;100.00;77330.19;5013894;28;20026;-66
2023/04/14 00:55:03;;;;;;;8.50;1.57;;;;;;;-142.75;100.00;77318.38;5013955;28;20508;-66
2023/04/14 00:57:29;;;;;;;8.83;2.03;;;;;;;-142.75;100.00;77322.31;5013697;28;20025;-66
2023/04/14 00:59:56;;;;;;;6.20;1.33;;;;;;;-142.75;100.00;77312.47;4996256;28;20117;-66
2023/04/14 01:02:22;;;;;;;5.70;1.77;;;;;;;-142.75;100.00;77314.44;5019351;28;20053;-66
2023/04/14 01:04:48;;;;;;;12.50;2.20;;;;;;;-142.75;100.00;77306.56;5032999;28;20478;-66
2023/04/14 01:07:14;;;;;;;10.77;2.77;;;;;;;-142.75;100.00;77298.69;5031524;28;20500;-65
2023/04/14 01:09:39;;;;;;;15.17;1.97;;;;;;;-142.75;100.00;77308.53;5032882;28;20025;-67
2023/04/14 01:12:20;;;;;;;12.80;2.17;;;;;;;-142.75;100.00;77306.56;5033283;28;20033;-66
2023/04/14 01:15:47;;;;;;;12.10;1.70;;;;;;;-142.75;100.00;77308.53;5033310;28;20025;-68
2023/04/14 01:18:31;;;;;;;12.63;1.77;;;;;;;-142.75;100.00;77310.50;4914523;29;20032;-67
2023/04/14 01:21:04;;;;;;;8.13;1.30;;;;;;;-142.75;100.00;77298.69;5022614;28;20064;-65
2023/04/14 01:23:34;;;;;;;8.67;2.17;;;;;;;-142.75;100.00;77290.81;5033205;28;20032;-66
2023/04/14 01:26:18;;;;;;;5.33;1.47;;;;;;;-142.75;100.00;77294.75;5015485;28;20022;-67
2023/04/14 01:29:06;;;;;;;8.73;1.60;;;;;;;-142.75;100.00;77296.72;5033026;28;20464;-65
2023/04/14 01:31:39;;;;;;;8.23;2.20;;;;;;;-142.75;100.00;77286.88;5033046;28;20489;-66
2023/04/14 01:34:44;;;;;;;9.90;2.43;;;;;;;-142.75;100.00;77306.56;5032973;28;20029;-66
2023/04/14 01:37:15;;;;;;;12.43;1.73;;;;;;;-142.75;100.00;77306.56;5032779;28;20396;-66
2023/04/14 01:39:45;;;;;;;3.33;1.27;;;;;;;-142.75;100.00;77314.44;5032913;28;20028;-66
2023/04/14 01:42:15;;;;;;;8.27;1.83;;;;;;;-142.75;100.00;77310.50;5015114;28;20014;-67
2023/04/14 01:44:42;;;;;;;6.00;1.53;;;;;;;-142.75;100.00;77306.56;5032458;28;20032;-65
2023/04/14 01:47:11;;;;;;;9.27;2.03;;;;;;;-142.75;100.00;77326.25;5032660;28;20538;-66
2023/04/14 01:49:39;;;;;;;7.37;2.20;;;;;;;-142.75;100.00;77330.19;5032919;28;20366;-66
2023/04/14 01:52:09;;;;;;;5.07;1.90;;;;;;;-142.75;100.00;77357.75;5032566;28;20026;-65
2023/04/14 01:54:37;;;;;;;14.67;2.60;;;;;;;-142.75;100.00;77369.56;5032501;28;20021;-66
2023/04/14 01:57:05;;;;;;;7.23;2.03;;;;;;;-142.75;100.00;77383.34;5014742;28;20022;-64
2023/04/14 01:59:32;;;;;;;8.40;2.07;;;;;;;-142.75;100.00;77401.06;5014923;28;20025;-65
2023/04/14 02:02:00;;;;;;;6.13;1.70;;;;;;;-142.75;100.00;77405.00;5032434;28;20440;-67
2023/04/14 02:04:27;;;;;;;5.87;1.93;;;;;;;-142.75;100.00;77428.63;5032376;28;20026;-66
2023/04/14 02:06:55;;;;;;;9.73;2.33;;;;;;;-142.75;100.00;77428.63;5014536;28;20115;-66
2023/04/14 02:09:21;;;;;;;11.87;2.77;;;;;;;-142.75;100.00;77444.38;5014576;28;20401;-67
2023/04/14 02:11:49;;;;;;;7.63;2.47;;;;;;;-142.75;100.00;77458.16;5032205;28;20053;-65
2023/04/14 02:14:16;;;;;;;8.20;2.57;;;;;;;-142.75;100.00;77479.84;5032195;28;20100;-65
2023/04/14 02:16:42;;;;;;;11.17;2.70;;;;;;;-142.75;100.00;77479.84;5032023;28;20017;-66
2023/04/14 02:19:08;;;;;;;14.33;2.57;;;;;;;-142.75;100.00;77481.81;5032168;28;20024;-65
2023/04/14 02:21:34;;;;;;;13.00;2.80;;;;;;;-142.75;100.00;77479.84;5031963;28;20029;-65
2023/04/14 02:23:59;;;;;;;7.97;2.00;;;;;;;-142.75;100.00;77468.03;5031885;28;20508;-66
2023/04/14 02:26:30;;;;;;;10.60;2.47;;;;;;;-142.75;100.00;77460.13;5031991;28;20025;-64
2023/04/14 02:29:14;;;;;;;9.60;2.53;;;;;;;-142.75;100.00;77452.25;5032050;28;20027;-67
2023/04/14 02:31:44;;;;;;;10.47;2.40;;;;;;;-142.75;100.00;77454.25;5031827;28;20505;-65
2023/04/14 02:34:13;;;;;;;7.27;2.70;;;;;;;-142.75;100.00;77454.25;5014218;28;20021;-67
2023/04/14 02:36:44;;;;;;;8.87;2.30;;;;;;;-142.75;100.00;77448.34;5031760;28;20017;-66
2023/04/14 02:39:16;;;;;;;11.00;2.53;;;;;;;-142.75;100.00;77444.38;5031895;28;20413;-66
2023/04/14 02:41:44;;;;;;;10.20;2.70;;;;;;;-142.75;100.00;77440.44;5031809;28;20395;-66
2023/04/14 02:44:11;;;;;;;6.20;2.40;;;;;;;-142.75;100.00;77434.53;5031761;28;20105;-65
2023/04/14 02:46:40;;;;;;;10.47;2.67;;;;;;;-142.75;100.00;77422.72;5031662;28;20029;-65
2023/04/14 02:49:09;;;;;;;11.83;2.73;;;;;;;-142.75;100.00;77420.75;5031785;28;20104;-65
2023/04/14 02:51:36;;;;;;;10.97;3.03;;;;;;;-142.75;100.00;77416.81;5031627;28;20430;-66
2023/04/14 02:54:03;;;;;;;11.67;3.07;;;;;;;-142.75;100.00;77397.13;5031593;28;20477;-65
2023/04/14 02:56:29;;;;;;;11.30;2.83;;;;;;;-142.75;100.00;77385.31;5031559;28;20025;-65
2023/04/14 02:58:55;;;;;;;7.53;2.27;;;;;;;-142.75;100.00;77377.44;5031663;28;20104;-66
2023/04/14 03:01:22;;;;;;;14.50;3.50;;;;;;;-142.75;100.00;77381.38;5031617;28;20021;-66
2023/04/14 03:03:48;;;;;;;17.83;2.90;;;;;;;-142.75;100.00;77377.44;5013787;28;20033;-65
2023/04/14 03:06:15;;;;;;;8.07;2.70;;;;;;;-142.75;100.00;77381.38;5031550;28;20551;-66
2023/04/14 03:08:42;;;;;;;11.10;3.03;;;;;;;-142.75;100.00;77377.44;5013622;28;20025;-66
2023/04/14 03:11:08;;;;;;;8.40;2.97;;;;;;;-142.75;100.00;77375.47;5031442;28;20026;-65
2023/04/14 03:13:34;;;;;;;16.33;3.77;;;;;;;-142.75;100.00;77381.38;5013710;28;20060;-65
2023/04/14 03:16:01;;;;;;;13.53;3.57;;;;;;;-142.75;100.00;77403.03;5013619;28;20109;-65
2023/04/14 03:18:29;;;;;;;11.13;3.77;;;;;;;-142.75;100.00;77397.13;5013628;28;20053;-65
2023/04/14 03:20:59;;;;;;;17.63;4.93;;;;;;;-142.75;100.00;77395.16;5031271;28;20021;-65
2023/04/14 03:23:25;;;;;;;10.23;4.53;;;;;;;-142.75;100.00;77397.13;5031274;28;20063;-67
2023/04/14 03:25:52;;;;;;;17.20;4.83;;;;;;;-142.75;100.00;77397.13;5031336;28;20045;-67
2023/04/14 03:28:22;;;;;;;13.53;4.57;;;;;;;-142.75;100.00;77397.13;5031357;28;20021;-66
2023/04/14 03:30:53;;;;;;;22.43;6.53;;;;;;;-142.75;100.00;77395.16;5031233;28;20381;-67
2023/04/14 03:33:26;;;;;;;13.23;4.70;;;;;;;-142.75;100.00;77387.28;5031355;28;20091;-67
2023/04/14 03:35:54;;;;;;;12.97;3.40;;;;;;;-142.75;100.00;77397.13;5031406;28;20121;-67
2023/04/14 03:38:20;;;;;;;13.80;3.93;;;;;;;-142.75;100.00;77405.00;5031091;28;20378;-67
2023/04/14 03:40:46;;;;;;;16.90;3.43;;;;;;;-142.75;100.00;77410.91;5031272;28;20439;-66
2023/04/14 03:43:18;;;;;;;15.73;2.87;;;;;;;-142.75;100.00;77416.81;5031125;28;20022;-67
2023/04/14 03:45:44;;;;;;;12.57;4.03;;;;;;;-142.75;100.00;77430.59;5033538;28;20025;-67
2023/04/14 03:48:13;;;;;;;13.30;3.57;;;;;;;-142.75;100.00;77440.44;5034823;28;20503;-67
2023/04/14 03:50:41;;;;;;;17.33;3.33;;;;;;;-142.75;100.00;77468.03;5016938;28;20045;-66
2023/04/14 03:53:11;;;;;;;10.13;3.17;;;;;;;-142.75;100.00;77468.03;5034823;28;20481;-68
2023/04/14 03:55:39;;;;;;;13.77;3.50;;;;;;;-142.75;100.00;77464.09;5034816;28;20022;-67
2023/04/14 03:58:07;;;;;;;15.33;3.57;;;;;;;-142.75;100.00;77503.47;5034599;28;20032;-67
2023/04/14 04:00:33;;;;;;;13.07;3.37;;;;;;;-142.75;100.00;77485.75;5016965;28;20045;-68
2023/04/14 04:03:00;;;;;;;10.17;3.70;;;;;;;-142.75;100.00;77483.78;5034574;28;20524;-66
2023/04/14 04:05:26;;;;;;;18.27;4.43;;;;;;;-142.75;100.00;77479.84;5034612;28;20013;-67
2023/04/14 04:07:54;;;;;;;9.90;3.90;;;;;;;-142.75;100.00;77479.84;5016747;28;20025;-67
2023/04/14 04:10:21;;;;;;;14.37;5.00;;;;;;;-142.75;100.00;77491.66;5034459;28;20045;-66
2023/04/14 04:12:48;;;;;;;12.63;4.00;;;;;;;-142.75;100.00;77497.56;5034549;28;20029;-65
2023/04/14 04:15:14;;;;;;;14.27;4.80;;;;;;;-142.75;100.00;77479.84;5034497;28;20079;-66
2023/04/14 04:17:43;;;;;;;11.37;4.27;;;;;;;-142.75;100.00;77495.59;5016575;28;20037;-66
2023/04/14 04:20:13;;;;;;;15.37;5.40;;;;;;;-142.75;100.00;77495.59;5034232;28;20033;-65
2023/04/14 04:22:40;;;;;;;16.10;5.10;;;;;;;-142.75;100.00;77495.59;5016554;28;20045;-66
2023/04/14 04:25:07;;;;;;;14.33;4.97;;;;;;;-142.75;100.00;77507.41;5034115;28;20021;-67
2023/04/14 04:27:33;;;;;;;20.20;5.10;;;;;;;-142.75;100.00;77495.59;5034074;28;20524;-65
2023/04/14 04:29:59;;;;;;;17.20;5.23;;;;;;;-142.75;100.00;77491.66;5034140;28;20108;-64
2023/04/14 04:32:25;;;;;;;15.20;5.10;;;;;;;-142.75;100.00;77499.53;5034113;28;20033;-67
2023/04/14 04:34:51;;;;;;;21.57;5.83;;;;;;;-142.75;100.00;77523.16;5034094;28;20057;-67
2023/04/14 04:37:20;;;;;;;17.23;5.47;;;;;;;-142.75;100.00;77525.13;5016288;28;20083;-65
2023/04/14 04:39:49;;;;;;;13.37;5.23;;;;;;;-142.75;100.00;77542.84;5033902;28;20037;-64
2023/04/14 04:42:15;;;;;;;11.77;4.67;;;;;;;-142.75;100.00;77544.81;5016306;28;20022;-65
2023/04/14 04:44:40;;;;;;;12.60;4.37;;;;;;;-142.75;100.00;77558.59;5016142;28;20401;-65
2023/04/14 04:47:06;;;;;;;16.10;4.97;;;;;;;-142.75;100.00;77548.75;5016265;28;20033;-66
2023/04/14 04:49:32;;;;;;;20.20;4.63;;;;;;;-142.75;100.00;77544.81;5033842;28;20439;-66
2023/04/14 04:51:58;;;;;;;14.47;5.50;;;;;;;-142.75;100.00;77548.75;5015877;28;20025;-65
2023/04/14 04:54:23;;;;;;;10.03;4.37;;;;;;;-142.75;100.00;77554.66;5033664;28;20017;-67
2023/04/14 04:56:49;;;;;;;15.13;4.53;;;;;;;-142.75;100.00;77550.72;5032399;28;20087;-65
2023/04/14 04:59:14;;;;;;;11.60;4.17;;;;;;;-142.75;100.00;77542.84;5015792;28;20114;-66
2023/04/14 05:01:40;;;;;;;17.73;4.80;;;;;;;-142.75;100.00;77542.84;5033735;28;20029;-67
2023/04/14 05:04:05;;;;;;;;;;;;;;;-142.75;100.00;77534.97;5033943;28;20558;-66
2023/04/14 05:06:34;;;;;;;15.13;3.80;;;;;;;-142.75;100.00;77538.91;5033431;28;19909;-65
2023/04/14 05:08:59;;;;;;;12.83;4.27;;;;;;;-142.75;100.00;77536.94;5033456;28;20036;-65
2023/04/14 05:11:25;;;;;;;12.73;4.10;;;;;;;-142.75;100.00;77536.94;5033417;28;20025;-65
2023/04/14 05:13:51;;;;;;;11.73;4.73;;;;;;;-142.75;100.00;77542.84;5033353;28;20025;-66
2023/04/14 05:16:17;;;;;;;10.80;4.73;;;;;;;-142.75;100.00;77546.78;5002523;28;20045;-65
2023/04/14 05:18:42;;;;;;;11.63;4.17;;;;;;;-142.75;100.00;77558.59;5013375;28;20044;-66
2023/04/14 05:21:11;;;;;;;12.83;4.63;;;;;;;-142.75;100.00;77544.81;5013377;28;20030;-65
2023/04/14 05:23:38;;;;;;;12.20;4.57;;;;;;;-142.75;100.00;77540.88;5013435;28;20104;-65
2023/04/14 05:26:05;;;;;;;10.90;4.33;;;;;;;-142.75;100.00;77536.94;4995629;28;20026;-66
2023/04/14 05:28:31;;;;;;;10.83;4.27;;;;;;;-142.75;100.00;77542.84;5013175;28;20034;-66
2023/04/14 05:30:56;;;;;;;13.67;5.10;;;;;;;-142.75;100.00;77546.78;5013240;28;20022;-65
2023/04/14 05:33:21;;;;;;;;;;;;;;;-142.75;100.00;77531.03;5013601;28;20030;-65
2023/04/14 05:35:49;;;;;;;10.23;3.80;;;;;;;-142.75;100.00;77550.72;5013260;28;19920;-65
2023/04/14 05:38:15;;;;;;;9.20;4.40;;;;;;;-142.75;100.00;77574.34;5013066;28;20129;-65
2023/04/14 05:40:41;;;;;;;9.70;4.27;;;;;;;-142.75;100.00;77570.41;5012994;28;20036;-65
2023/04/14 05:43:06;;;;;;;15.53;4.20;;;;;;;-142.75;100.00;77548.75;5012955;28;20038;-63
2023/04/14 05:45:31;;;;;;;9.10;4.07;;;;;;;-142.75;100.00;77531.03;5013004;28;20174;-66
2023/04/14 05:47:57;;;;;;;12.13;4.10;;;;;;;-142.75;100.00;77517.25;5012625;28;20057;-67
2023/04/14 05:50:22;;;;;;;8.57;4.03;;;;;;;-142.75;100.00;77507.41;5012411;28;20097;-65
2023/04/14 05:52:48;;;;;;;9.40;4.53;;;;;;;-142.75;100.00;77495.59;4995183;28;20404;-67
2023/04/14 05:55:14;;;;;;;16.13;4.87;;;;;;;-142.75;100.00;77473.94;5001160;28;20045;-66
2023/04/14 05:57:39;;;;;;;12.53;4.30;;;;;;;-142.75;100.00;77470.00;5014625;28;20036;-66
2023/04/14 06:00:09;;;;;;;10.70;3.97;;;;;;;-142.75;100.00;77448.34;5032338;28;20698;-65
2023/04/14 06:02:35;;;;;;;10.70;4.07;;;;;;;-142.75;100.00;77450.28;5014405;28;20112;-66
2023/04/14 06:05:00;;;;;;;11.70;4.20;;;;;;;-142.75;100.00;77438.47;5032422;28;20049;-65
2023/04/14 06:07:26;;;;;;;10.27;4.20;;;;;;;-142.75;100.00;77408.94;5032540;28;20029;-67
2023/04/14 06:09:52;;;;;;;8.67;3.73;;;;;;;-142.75;100.00;77397.13;5029987;28;20086;-66
2023/04/14 06:12:17;;;;;;;8.80;3.80;;;;;;;-142.75;100.00;77363.66;5015381;28;20026;-65
2023/04/14 06:14:43;;;;;;;10.23;3.70;;;;;;;-142.75;100.00;77351.84;5020450;28;20045;-66
2023/04/14 06:17:08;;;;;;;9.13;3.57;;;;;;;-142.75;100.00;77330.19;5001343;28;20029;-67
2023/04/14 06:19:33;;;;;;;;;;;;;;;-142.75;100.00;77308.53;5012547;28;20094;-67
2023/04/14 06:21:58;;;;;;;7.90;3.57;;;;;;;-142.75;100.00;77310.50;5011972;28;19921;-67
2023/04/14 06:24:24;;;;;;;15.40;4.07;;;;;;;-142.75;100.00;77302.63;5013414;28;20025;-67
2023/04/14 06:26:49;;;;;;;;;;;;;;;-142.75;100.00;77290.81;5012237;28;20493;-67
2023/04/14 06:29:15;;;;;;;9.10;3.70;;;;;;;-142.75;100.00;77277.03;5011909;28;20003;-66
2023/04/14 06:31:40;;;;;;;10.80;4.40;;;;;;;-142.75;100.00;77259.31;5011682;28;20026;-66
2023/04/14 06:34:05;;;;;;;6.80;3.63;;;;;;;-142.75;100.00;77243.56;4998397;28;20087;-67
2023/04/14 06:36:31;;;;;;;6.60;3.40;;;;;;;-142.75;100.00;77235.69;4998007;28;20508;-67
2023/04/14 06:38:57;;;;;;;10.57;3.37;;;;;;;-142.75;100.00;77212.06;5011514;28;20034;-67
2023/04/14 06:41:22;;;;;;;;;;;;;;;-142.75;100.00;77200.25;4995702;28;20466;-65
2023/04/14 06:43:48;;;;;;;10.87;3.53;;;;;;;-142.75;100.00;77192.38;4999068;28;19913;-65
2023/04/14 06:46:13;;;;;;;7.43;3.17;;;;;;;-142.75;100.00;77178.59;5017904;28;20101;-67
2023/04/14 06:48:38;;;;;;;10.40;3.23;;;;;;;-142.75;100.00;77170.72;5030007;22;20047;-69
2023/04/14 06:51:04;;;;;;;12.63;4.30;;;;;;;-142.75;100.00;77151.03;4997629;28;20037;-69
2023/04/14 06:53:29;;;;;;;6.77;2.90;;;;;;;-142.75;100.00;77139.22;4998005;28;20057;-69
2023/04/14 06:56:01;;;;;;;7.10;2.70;;;;;;;-142.75;100.00;77117.56;4998283;28;20033;-70
2023/04/14 06:58:27;;;;;;;8.93;3.00;;;;;;;-142.75;100.00;77097.88;5001748;28;20037;-69
2023/04/14 07:01:01;;;;;;;7.23;3.10;;;;;;;-142.75;100.00;77078.19;5011461;28;20014;-69
2023/04/14 07:03:28;;;;;;;10.00;3.10;;;;;;;-142.75;100.00;77074.25;5011291;28;20041;-69
2023/04/14 07:05:53;;;;;;;8.80;2.90;;;;;;;-142.75;100.00;77062.44;5011470;28;20077;-69
2023/04/14 07:08:20;;;;;;;7.47;2.50;;;;;;;-142.75;100.00;77052.59;5011391;28;20507;-70
2023/04/14 07:10:46;;;;;;;8.23;3.20;;;;;;;-142.75;100.00;77048.66;5011286;28;20095;-69
2023/04/14 07:13:11;;;;;;;9.70;2.65;;;;;;;-142.75;100.00;77013.22;5011295;28;20061;-68
2023/04/14 07:15:37;;;;;;;8.87;2.63;;;;;;;-142.75;100.00;77003.38;5007838;28;20486;-69
2023/04/14 07:18:02;;;;;;;5.47;2.33;;;;;;;-142.75;100.00;76979.75;5003661;28;20018;-68
2023/04/14 07:20:28;;;;;;;5.60;2.30;;;;;;;-142.75;100.00;76977.78;5010296;28;20029;-70
2023/04/14 07:22:54;;;;;;;5.55;2.60;;;;;;;-142.75;100.00;76948.25;5004729;28;20038;-70
2023/04/14 07:25:20;;;;;;;9.05;2.67;;;;;;;-142.75;100.00;76930.53;5009302;28;20629;-70
2023/04/14 07:27:46;;;;;;;7.50;2.78;;;;;;;-142.75;100.00;76908.88;5009243;28;20097;-70
2023/04/14 07:30:11;;;;;;;9.45;2.78;;;;;;;-142.75;100.00;76930.53;5007385;28;20032;-70
2023/04/14 07:32:37;;;;;;;5.80;2.85;;;;;;;-142.75;100.00;76865.56;5010636;28;20038;-66
2023/04/14 07:35:03;;;;;;;8.15;2.80;;;;;;;-142.75;100.00;76861.63;5010291;28;20533;-66
2023/04/14 07:37:29;;;;;;;10.70;3.53;;;;;;;-142.75;100.00;76867.53;5005891;28;20084;-66
2023/04/14 07:39:54;;;;;;;8.70;2.40;;;;;;;-142.75;100.00;76855.72;5007609;28;20034;-66
2023/04/14 07:42:20;;;;;;;7.80;3.60;;;;;;;-142.75;100.00;76875.41;5014946;28;20108;-66
2023/04/14 07:44:45;;;;;;;10.63;4.28;;;;;;;-142.75;100.00;76901.00;5014336;28;20029;-66
2023/04/14 07:47:11;;;;;;;22.42;9.05;;;;;;;-142.75;100.00;76877.38;5009714;28;20030;-66
2023/04/14 07:49:38;;;;;;;8.50;2.53;;;;;;;-142.75;100.00;76883.28;4997671;28;20105;-66
2023/04/14 07:52:03;;;;;;;7.70;2.60;;;;;;;-142.75;100.00;76855.72;5001373;28;20037;-67
2023/04/14 07:54:30;;;;;;;8.63;2.55;;;;;;;-142.75;100.00;76836.03;5000129;28;20022;-67
2023/04/14 07:56:56;;;;;;;7.40;2.05;;;;;;;-142.75;100.00;76824.22;4996645;28;20018;-67
2023/04/14 07:59:21;;;;;;;5.43;2.20;;;;;;;-142.75;100.00;76830.13;5008735;28;20026;-67
2023/04/14 08:01:47;;;;;;;11.75;2.55;;;;;;;-142.75;100.00;76800.63;5014006;28;20481;-67
2023/04/14 08:04:12;;;;;;;7.00;2.50;;;;;;;-142.75;100.00;76790.78;5009232;28;20069;-67
2023/04/14 08:06:38;;;;;;;6.68;2.55;;;;;;;-142.75;100.00;76796.69;5012484;28;20033;-67
2023/04/14 08:09:03;;;;;;;6.80;2.45;;;;;;;-142.75;100.00;76784.88;5014316;28;20404;-67
2023/04/14 08:11:28;;;;;;;5.68;1.90;;;;;;;-142.75;100.00;76790.78;5013820;28;20085;-66
2023/04/14 08:13:54;;;;;;;8.90;2.17;;;;;;;-142.75;100.00;76767.16;5013948;28;20034;-67
2023/04/14 08:16:19;;;;;;;5.38;1.88;;;;;;;-142.75;100.00;76767.16;5011607;28;20018;-66
2023/04/14 08:18:47;;;;;;;5.10;1.73;;;;;;;-142.75;100.00;76749.44;5013913;28;20567;-67
2023/04/14 08:21:12;;;;;;;10.38;1.77;;;;;;;-142.75;100.00;76725.81;5012628;28;20481;-67
2023/04/14 08:23:37;;;;;;;4.22;1.58;;;;;;;-142.75;100.00;76710.06;5014133;28;20105;-66
2023/04/14 08:26:03;;;;;;;7.57;1.60;;;;;;;-142.75;100.00;76686.44;5013601;28;20029;-67
2023/04/14 08:28:29;;;;;;;3.65;1.40;;;;;;;-142.75;100.00;76676.59;5012734;28;20053;-66
2023/04/14 08:30:54;;;;;;;5.78;1.40;;;;;;;-142.75;100.00;76654.94;5013712;28;20026;-67
2023/04/14 08:33:20;;;;;;;5.25;1.30;;;;;;;-142.75;100.00;76621.47;5013561;28;20029;-69
2023/04/14 08:35:45;;;;;;;3.63;1.20;;;;;;;-142.75;100.00;76584.06;5013989;28;20571;-68
2023/04/14 08:38:10;;;;;;;5.55;1.17;;;;;;;-142.75;98.14;76584.06;5013719;28;20381;-68
2023/04/14 08:40:39;;;;;;;2.35;0.77;;;;;;;-142.75;97.17;76544.69;5014027;28;20026;-68
2023/04/14 08:43:04;;;;;;;3.63;0.90;;;;;;;-142.75;93.55;76554.53;5013635;28;20022;-68
2023/04/14 08:45:33;;;;;;;4.43;1.10;;;;;;;-142.75;93.78;76558.47;5014106;28;20080;-68
2023/04/14 08:47:59;;;;;;;3.53;0.80;;;;;;;-142.75;93.94;76564.38;5010966;28;20417;-68
2023/04/14 08:50:29;;;;;;;3.03;1.00;;;;;;;-142.75;92.93;76562.41;5013644;28;20529;-69
2023/04/14 08:52:58;;;;;;;4.60;1.00;;;;;;;-142.75;94.11;76572.25;5013330;28;20034;-69
2023/04/14 08:55:24;;;;;;;2.83;1.13;;;;;;;-142.75;93.87;76564.38;5013746;28;20075;-68
2023/04/14 08:57:50;;;;;;;2.88;0.98;;;;;;;-142.75;93.84;76552.56;5013374;28;20429;-69
2023/04/14 09:00:17;;;;;;;3.63;0.70;;;;;;;-142.75;93.59;76566.34;5013264;28;20021;-69
2023/04/14 09:02:43;;;;;;;2.40;0.80;;;;;;;-142.75;96.48;76552.56;5013471;28;20018;-68
2023/04/14 09:05:10;;;;;;;8.88;1.10;;;;;;;-142.75;91.21;76580.13;5013503;28;20045;-68
2023/04/14 09:07:35;;;;;;;4.45;0.80;;;;;;;-142.75;92.08;76546.66;5011975;28;20080;-70
2023/04/14 09:10:02;;;;;;;2.65;0.55;;;;;;;-142.75;90.83;76578.16;5013448;28;20022;-69
2023/04/14 09:12:29;;;;;;;2.50;0.43;;;;;;;-142.75;91.40;76548.63;5013342;28;20041;-69
2023/04/14 09:14:56;;;;;;;4.40;0.68;;;;;;;-142.75;90.17;76542.72;5013555;28;20025;-69
2023/04/14 09:17:24;;;;;;;6.18;0.73;;;;;;;-142.75;88.47;76521.09;5013313;28;20026;-69
2023/04/14 09:19:49;;;;;;;3.63;0.82;;;;;;;-142.75;90.35;76471.88;5013622;28;20021;-69
2023/04/14 09:22:15;;;;;;;7.35;1.40;;;;;;;-142.75;86.57;76511.25;5011911;28;20075;-68
2023/04/14 09:24:40;;;;;;;6.32;1.20;;;;;;;-142.75;85.38;76501.41;5013091;28;20049;-69
2023/04/14 09:27:06;;;;;;;3.13;1.00;;;;;;;-142.75;85.55;76515.19;5011581;28;20020;-69
2023/04/14 09:29:32;;;;;;;4.47;1.02;;;;;;;-142.75;86.31;76507.31;5012895;28;20473;-69
2023/04/14 09:31:58;;;;;;;5.03;1.35;;;;;;;-142.75;87.76;76538.78;5012920;28;20022;-68
2023/04/14 09:34:23;;;;;;;5.72;1.52;;;;;;;-142.75;89.50;76550.59;5012820;28;20081;-69
2023/04/14 09:37:03;;;;;;;6.50;1.48;;;;;;;-142.75;91.98;76588.00;5011433;28;20022;-68
2023/04/14 09:39:30;;;;;;;7.15;1.38;;;;;;;-142.75;93.07;76593.91;5010132;28;20414;-69
2023/04/14 09:41:55;;;;;;;8.02;2.00;;;;;;;-142.75;94.95;76554.53;5012087;28;20010;-69
2023/04/14 09:44:21;;;;;;;6.82;2.00;;;;;;;-142.75;94.15;76568.31;5011370;28;20072;-69
2023/04/14 09:47:01;;;;;;;6.15;1.30;;;;;;;-142.75;96.86;76556.50;5011410;28;20113;-71
2023/04/14 09:49:27;;;;;;;4.40;1.27;;;;;;;-142.75;97.27;76499.44;5011904;28;20029;-69
2023/04/14 09:51:54;;;;;;;7.93;1.77;;;;;;;-142.75;95.91;76450.22;5012604;28;20033;-70
2023/04/14 09:54:26;;;;;;;5.30;1.33;;;;;;;-142.75;90.12;76393.13;5012576;28;20026;-69
2023/04/14 09:56:54;;;;;;;7.28;1.30;;;;;;;-142.75;87.41;76434.47;5012682;28;20112;-69
2023/04/14 09:59:46;;;;;;;4.18;1.23;;;;;;;-142.75;86.00;76434.47;5012948;28;20092;-70
2023/04/14 10:02:11;;;;;;;2.90;1.20;;;;;;;-142.75;86.26;76440.38;5011706;28;20030;-70
2023/04/14 10:04:37;;;;;;;5.00;0.90;;;;;;;-142.75;83.26;76436.44;5012810;28;20033;-69
2023/04/14 10:07:06;;;;;;;2.40;0.60;;;;;;;-142.75;81.42;76430.53;5012575;28;20017;-69
2023/04/14 10:09:36;;;;;;;3.65;1.00;;;;;;;-142.75;83.48;76418.72;5012544;28;20099;-69
2023/04/14 10:12:14;;;;;;;5.50;0.98;;;;;;;-142.75;83.44;76393.13;5012688;28;20022;-69
2023/04/14 10:14:41;;;;;;;4.03;0.90;;;;;;;-142.75;80.78;76412.81;5011375;28;20075;-69
2023/04/14 10:17:07;;;;;;;6.03;1.33;;;;;;;-142.75;81.72;76426.59;5011921;28;20026;-69
2023/04/14 10:19:34;;;;;;;4.50;0.98;;;;;;;-142.75;80.84;76456.13;5012293;28;20036;-69
2023/04/14 10:21:59;;;;;;;4.45;0.77;;;;;;;-142.75;79.96;76471.88;5012286;28;20148;-72
2023/04/14 10:24:25;;;;;;;2.95;0.90;;;;;;;-142.75;80.87;76491.56;5012207;28;20022;-69
2023/04/14 10:26:51;;;;;;;6.15;1.15;;;;;;;-142.75;84.08;76428.56;5011959;28;20049;-69
2023/04/14 10:29:17;;;;;;;3.53;0.90;;;;;;;-142.75;80.23;76401.00;5011955;28;20026;-69
2023/04/14 10:31:48;;;;;;;3.47;0.95;;;;;;;-142.75;80.09;76391.16;5011996;28;20076;-70
2023/04/14 10:34:17;;;;;;;5.65;1.15;;;;;;;-142.75;80.49;76385.25;5012203;28;20053;-70
2023/04/14 10:36:43;;;;;;;2.80;0.73;;;;;;;-142.75;80.79;76416.75;5011653;28;20100;-69
2023/04/14 10:39:10;;;;;;;3.15;0.80;;;;;;;-142.75;79.81;76436.44;5011685;28;20114;-69
2023/04/14 10:41:41;;;;;;;2.78;0.90;;;;;;;-142.75;80.14;76383.28;5011828;28;20052;-68
2023/04/14 10:44:24;;;;;;;6.10;1.50;;;;;;;-142.75;79.24;76377.38;5010370;28;20034;-69
2023/04/14 10:46:50;;;;;;;6.68;1.30;;;;;;;-142.75;79.52;76365.56;5011421;28;20398;-70
2023/04/14 10:49:17;;;;;;;4.07;1.20;;;;;;;-142.75;79.73;76385.25;5011595;28;20017;-70
2023/04/14 10:51:43;;;;;;;3.33;1.15;;;;;;;-142.75;80.22;76385.25;5011475;28;20018;-70
2023/04/14 10:54:19;;;;;;;2.97;1.02;;;;;;;-142.75;77.89;76387.22;5010267;28;20083;-69
2023/04/14 10:57:10;;;;;;;5.18;1.08;;;;;;;-142.75;79.04;76401.00;5011173;28;20026;-68
2023/04/14 10:59:40;;;;;;;3.58;0.98;;;;;;;-142.75;79.11;76395.09;5010350;28;20018;-69
2023/04/14 11:02:20;;;;;;;1.92;0.80;;;;;;;-142.75;80.62;76456.13;5011588;28;20014;-71
2023/04/14 11:05:03;;;;;;;7.75;1.10;;;;;;;-142.75;80.11;76414.78;5011499;28;20026;-69
2023/04/14 11:07:30;;;;;;;8.48;0.93;;;;;;;-142.75;78.17;76397.06;5011418;28;20088;-69
2023/04/14 11:10:19;;;;;;;3.47;1.10;;;;;;;-142.75;80.74;76434.47;5011735;28;20114;-69
2023/04/14 11:12:59;;;;;;;4.88;1.00;;;;;;;-142.75;81.81;76499.44;5011497;28;20022;-69